sensor_id;sensor_type;location;lat;lon;timestamp;P1;durP1;ratioP1;P2;durP2;ratioP2
44774;SDS011;31340;51.402;0.016;2023-04-25T00:00:57;24.83;;;5.53;;
44774;SDS011;31340;51.402;0.016;2023-04-25T00:03:25;36.35;;;6.72;;
44774;SDS011;31340;51.402;0.016;2023-04-25T00:05:53;22.85;;;5.28;;
44774;SDS011;31340;51.402;0.016;2023-04-25T00:08:24;20.02;;;5.60;;
44774;SDS011;31340;51.402;0.016;2023-04-25T00:10:52;23.80;;;6.28;;
44774;SDS011;31340;51.402;0.016;2023-04-25T00:15:52;24.00;;;6.10;;
44774;SDS011;31340;51.402;0.016;2023-04-25T00:18:23;22.05;;;4.85;;
44774;SDS011;31340;51.402;0.016;2023-04-25T00:20:51;28.00;;;5.72;;
44774;SDS011;31340;51.402;0.016;2023-04-25T00:23:18;29.67;;;5.20;;
44774;SDS011;31340;51.402;0.016;2023-04-25T00:25:47;28.90;;;6.97;;
44774;SDS011;31340;51.402;0.016;2023-04-25T00:28:15;18.70;;;4.68;;
44774;SDS011;31340;51.402;0.016;2023-04-25T00:30:43;23.95;;;5.18;;
44774;SDS011;31340;51.402;0.016;2023-04-25T00:33:11;19.98;;;5.13;;
44774;SDS011;31340;51.402;0.016;2023-04-25T00:35:39;25.50;;;5.00;;
44774;SDS011;31340;51.402;0.016;2023-04-25T00:38:07;23.35;;;4.60;;
44774;SDS011;31340;51.402;0.016;2023-04-25T00:40:34;20.73;;;4.85;;
44774;SDS011;31340;51.402;0.016;2023-04-25T00:43:02;24.75;;;4.20;;
44774;SDS011;31340;51.402;0.016;2023-04-25T00:45:30;20.17;;;4.93;;
44774;SDS011;31340;51.402;0.016;2023-04-25T00:47:57;18.13;;;5.03;;
44774;SDS011;31340;51.402;0.016;2023-04-25T00:50:25;29.30;;;5.00;;
44774;SDS011;31340;51.402;0.016;2023-04-25T00:52:53;18.20;;;4.43;;
44774;SDS011;31340;51.402;0.016;2023-04-25T00:55:21;28.95;;;4.97;;
44774;SDS011;31340;51.402;0.016;2023-04-25T00:57:49;28.40;;;4.70;;
44774;SDS011;31340;51.402;0.016;2023-04-25T01:00:17;24.65;;;4.65;;
44774;SDS011;31340;51.402;0.016;2023-04-25T01:02:47;17.40;;;4.85;;
44774;SDS011;31340;51.402;0.016;2023-04-25T01:05:15;22.58;;;4.88;;
44774;SDS011;31340;51.402;0.016;2023-04-25T01:07:43;21.48;;;4.20;;
44774;SDS011;31340;51.402;0.016;2023-04-25T01:10:11;21.10;;;5.03;;
44774;SDS011;31340;51.402;0.016;2023-04-25T01:15:31;26.60;;;5.07;;
44774;SDS011;31340;51.402;0.016;2023-04-25T01:17:59;27.65;;;4.82;;
44774;SDS011;31340;51.402;0.016;2023-04-25T01:20:28;20.15;;;4.32;;
44774;SDS011;31340;51.402;0.016;2023-04-25T01:22:56;21.23;;;4.10;;
44774;SDS011;31340;51.402;0.016;2023-04-25T01:25:24;30.90;;;3.70;;
44774;SDS011;31340;51.402;0.016;2023-04-25T01:27:52;25.05;;;3.95;;
44774;SDS011;31340;51.402;0.016;2023-04-25T01:30:20;23.23;;;4.78;;
44774;SDS011;31340;51.402;0.016;2023-04-25T01:32:48;21.42;;;4.45;;
44774;SDS011;31340;51.402;0.016;2023-04-25T01:35:16;22.45;;;4.35;;
44774;SDS011;31340;51.402;0.016;2023-04-25T01:37:44;25.65;;;4.72;;
44774;SDS011;31340;51.402;0.016;2023-04-25T01:40:12;20.73;;;5.07;;
44774;SDS011;31340;51.402;0.016;2023-04-25T01:42:41;20.98;;;4.10;;
44774;SDS011;31340;51.402;0.016;2023-04-25T01:45:10;19.73;;;3.63;;
44774;SDS011;31340;51.402;0.016;2023-04-25T01:47:38;20.40;;;3.80;;
44774;SDS011;31340;51.402;0.016;2023-04-25T01:50:07;27.40;;;4.10;;
44774;SDS011;31340;51.402;0.016;2023-04-25T01:52:36;21.50;;;4.47;;
44774;SDS011;31340;51.402;0.016;2023-04-25T01:55:05;25.42;;;5.15;;
44774;SDS011;31340;51.402;0.016;2023-04-25T01:57:35;25.63;;;4.97;;
44774;SDS011;31340;51.402;0.016;2023-04-25T02:00:04;19.23;;;4.05;;
44774;SDS011;31340;51.402;0.016;2023-04-25T02:02:38;19.48;;;4.40;;
44774;SDS011;31340;51.402;0.016;2023-04-25T02:05:26;16.58;;;4.60;;
44774;SDS011;31340;51.402;0.016;2023-04-25T02:07:54;17.83;;;3.92;;
44774;SDS011;31340;51.402;0.016;2023-04-25T02:10:24;22.67;;;4.25;;
44774;SDS011;31340;51.402;0.016;2023-04-25T02:13:03;19.40;;;4.07;;
44774;SDS011;31340;51.402;0.016;2023-04-25T02:15:54;18.65;;;4.18;;
44774;SDS011;31340;51.402;0.016;2023-04-25T02:18:22;21.55;;;4.07;;
44774;SDS011;31340;51.402;0.016;2023-04-25T02:20:50;24.15;;;4.07;;
44774;SDS011;31340;51.402;0.016;2023-04-25T02:23:17;13.50;;;3.58;;
44774;SDS011;31340;51.402;0.016;2023-04-25T02:25:46;21.77;;;4.50;;
44774;SDS011;31340;51.402;0.016;2023-04-25T02:28:13;18.75;;;4.22;;
44774;SDS011;31340;51.402;0.016;2023-04-25T02:30:41;15.13;;;3.45;;
44774;SDS011;31340;51.402;0.016;2023-04-25T02:33:08;22.75;;;3.65;;
44774;SDS011;31340;51.402;0.016;2023-04-25T02:35:36;19.17;;;3.60;;
44774;SDS011;31340;51.402;0.016;2023-04-25T02:38:03;17.20;;;3.83;;
44774;SDS011;31340;51.402;0.016;2023-04-25T02:40:32;16.13;;;4.22;;
44774;SDS011;31340;51.402;0.016;2023-04-25T02:43:00;19.55;;;3.83;;
44774;SDS011;31340;51.402;0.016;2023-04-25T02:45:27;22.35;;;4.72;;
44774;SDS011;31340;51.402;0.016;2023-04-25T02:47:55;22.92;;;3.92;;
44774;SDS011;31340;51.402;0.016;2023-04-25T02:50:23;23.65;;;4.13;;
44774;SDS011;31340;51.402;0.016;2023-04-25T02:52:50;23.95;;;3.50;;
44774;SDS011;31340;51.402;0.016;2023-04-25T02:55:24;23.55;;;4.15;;
44774;SDS011;31340;51.402;0.016;2023-04-25T02:57:54;25.38;;;4.28;;
44774;SDS011;31340;51.402;0.016;2023-04-25T03:00:35;29.30;;;5.20;;
44774;SDS011;31340;51.402;0.016;2023-04-25T03:03:02;23.48;;;3.65;;
44774;SDS011;31340;51.402;0.016;2023-04-25T03:05:30;17.27;;;3.90;;
44774;SDS011;31340;51.402;0.016;2023-04-25T03:07:58;14.48;;;4.00;;
44774;SDS011;31340;51.402;0.016;2023-04-25T03:10:27;26.52;;;4.53;;
44774;SDS011;31340;51.402;0.016;2023-04-25T03:15:25;17.45;;;4.07;;
44774;SDS011;31340;51.402;0.016;2023-04-25T03:17:53;17.60;;;4.50;;
44774;SDS011;31340;51.402;0.016;2023-04-25T03:20:21;16.88;;;4.57;;
44774;SDS011;31340;51.402;0.016;2023-04-25T03:22:48;17.10;;;3.85;;
44774;SDS011;31340;51.402;0.016;2023-04-25T03:25:16;17.20;;;3.10;;
44774;SDS011;31340;51.402;0.016;2023-04-25T03:27:44;16.73;;;3.90;;
44774;SDS011;31340;51.402;0.016;2023-04-25T03:30:12;19.45;;;3.63;;
44774;SDS011;31340;51.402;0.016;2023-04-25T03:32:42;18.67;;;4.60;;
44774;SDS011;31340;51.402;0.016;2023-04-25T03:35:10;21.08;;;4.38;;
44774;SDS011;31340;51.402;0.016;2023-04-25T03:37:37;12.52;;;3.50;;
44774;SDS011;31340;51.402;0.016;2023-04-25T03:40:05;22.13;;;5.38;;
44774;SDS011;31340;51.402;0.016;2023-04-25T03:42:53;19.35;;;3.83;;
44774;SDS011;31340;51.402;0.016;2023-04-25T03:45:21;15.63;;;3.83;;
44774;SDS011;31340;51.402;0.016;2023-04-25T03:47:48;20.67;;;4.15;;
44774;SDS011;31340;51.402;0.016;2023-04-25T03:50:16;12.77;;;3.58;;
44774;SDS011;31340;51.402;0.016;2023-04-25T03:52:44;15.60;;;4.35;;
44774;SDS011;31340;51.402;0.016;2023-04-25T03:55:11;18.48;;;3.90;;
44774;SDS011;31340;51.402;0.016;2023-04-25T03:57:39;24.15;;;5.10;;
44774;SDS011;31340;51.402;0.016;2023-04-25T04:00:07;18.38;;;3.88;;
44774;SDS011;31340;51.402;0.016;2023-04-25T04:02:41;14.13;;;4.15;;
44774;SDS011;31340;51.402;0.016;2023-04-25T04:05:11;11.27;;;3.95;;
44774;SDS011;31340;51.402;0.016;2023-04-25T04:07:49;16.80;;;3.97;;
44774;SDS011;31340;51.402;0.016;2023-04-25T04:10:17;21.02;;;4.13;;
44774;SDS011;31340;51.402;0.016;2023-04-25T04:12:44;16.30;;;3.95;;
44774;SDS011;31340;51.402;0.016;2023-04-25T04:15:12;14.93;;;4.50;;
44774;SDS011;31340;51.402;0.016;2023-04-25T04:17:43;21.10;;;3.85;;
44774;SDS011;31340;51.402;0.016;2023-04-25T04:20:10;20.50;;;3.88;;
44774;SDS011;31340;51.402;0.016;2023-04-25T04:22:39;18.55;;;4.30;;
44774;SDS011;31340;51.402;0.016;2023-04-25T04:25:11;16.27;;;3.63;;
44774;SDS011;31340;51.402;0.016;2023-04-25T04:28:01;15.70;;;4.15;;
44774;SDS011;31340;51.402;0.016;2023-04-25T04:30:38;16.10;;;4.43;;
44774;SDS011;31340;51.402;0.016;2023-04-25T04:33:08;16.42;;;4.35;;
44774;SDS011;31340;51.402;0.016;2023-04-25T04:35:41;15.75;;;3.78;;
44774;SDS011;31340;51.402;0.016;2023-04-25T04:38:10;20.60;;;4.78;;
44774;SDS011;31340;51.402;0.016;2023-04-25T04:40:38;16.08;;;4.65;;
44774;SDS011;31340;51.402;0.016;2023-04-25T04:43:24;15.93;;;4.72;;
44774;SDS011;31340;51.402;0.016;2023-04-25T04:46:10;15.82;;;4.03;;
44774;SDS011;31340;51.402;0.016;2023-04-25T04:48:52;21.95;;;4.70;;
44774;SDS011;31340;51.402;0.016;2023-04-25T04:51:39;16.02;;;4.82;;
44774;SDS011;31340;51.402;0.016;2023-04-25T04:54:35;19.98;;;4.75;;
44774;SDS011;31340;51.402;0.016;2023-04-25T04:57:15;14.57;;;3.60;;
44774;SDS011;31340;51.402;0.016;2023-04-25T05:00:01;22.75;;;4.90;;
44774;SDS011;31340;51.402;0.016;2023-04-25T05:02:40;15.93;;;4.13;;
44774;SDS011;31340;51.402;0.016;2023-04-25T05:05:28;20.70;;;3.97;;
44774;SDS011;31340;51.402;0.016;2023-04-25T05:08:25;15.50;;;4.40;;
44774;SDS011;31340;51.402;0.016;2023-04-25T05:11:28;16.67;;;4.07;;
44774;SDS011;31340;51.402;0.016;2023-04-25T05:14:14;18.33;;;4.65;;
44774;SDS011;31340;51.402;0.016;2023-04-25T05:16:49;12.88;;;4.35;;
44774;SDS011;31340;51.402;0.016;2023-04-25T05:19:37;19.85;;;4.78;;
44774;SDS011;31340;51.402;0.016;2023-04-25T05:22:29;16.20;;;4.03;;
44774;SDS011;31340;51.402;0.016;2023-04-25T05:25:11;23.88;;;4.20;;
44774;SDS011;31340;51.402;0.016;2023-04-25T05:27:59;17.60;;;4.05;;
44774;SDS011;31340;51.402;0.016;2023-04-25T05:30:42;12.82;;;3.92;;
44774;SDS011;31340;51.402;0.016;2023-04-25T05:33:14;19.17;;;4.45;;
44774;SDS011;31340;51.402;0.016;2023-04-25T05:35:43;16.80;;;4.35;;
44774;SDS011;31340;51.402;0.016;2023-04-25T05:38:11;18.60;;;4.22;;
44774;SDS011;31340;51.402;0.016;2023-04-25T05:40:57;17.52;;;3.55;;
44774;SDS011;31340;51.402;0.016;2023-04-25T05:43:41;19.10;;;4.38;;
44774;SDS011;31340;51.402;0.016;2023-04-25T05:46:30;15.73;;;4.30;;
44774;SDS011;31340;51.402;0.016;2023-04-25T05:49:28;18.52;;;4.30;;
44774;SDS011;31340;51.402;0.016;2023-04-25T05:52:02;16.08;;;3.60;;
44774;SDS011;31340;51.402;0.016;2023-04-25T05:54:41;19.33;;;3.92;;
44774;SDS011;31340;51.402;0.016;2023-04-25T05:57:08;14.65;;;4.20;;
44774;SDS011;31340;51.402;0.016;2023-04-25T05:59:45;17.27;;;4.03;;
44774;SDS011;31340;51.402;0.016;2023-04-25T06:02:15;28.27;;;3.95;;
44774;SDS011;31340;51.402;0.016;2023-04-25T06:04:44;17.10;;;4.05;;
44774;SDS011;31340;51.402;0.016;2023-04-25T06:07:12;15.13;;;4.65;;
44774;SDS011;31340;51.402;0.016;2023-04-25T06:09:40;25.58;;;5.28;;
44774;SDS011;31340;51.402;0.016;2023-04-25T06:12:09;26.95;;;4.90;;
44774;SDS011;31340;51.402;0.016;2023-04-25T06:14:36;10.52;;;3.40;;
44774;SDS011;31340;51.402;0.016;2023-04-25T06:17:04;15.32;;;4.03;;
44774;SDS011;31340;51.402;0.016;2023-04-25T06:19:35;16.17;;;4.32;;
44774;SDS011;31340;51.402;0.016;2023-04-25T06:22:03;13.73;;;4.22;;
44774;SDS011;31340;51.402;0.016;2023-04-25T06:24:32;15.25;;;4.38;;
44774;SDS011;31340;51.402;0.016;2023-04-25T06:27:03;19.20;;;4.57;;
44774;SDS011;31340;51.402;0.016;2023-04-25T06:29:30;16.63;;;4.35;;
44774;SDS011;31340;51.402;0.016;2023-04-25T06:31:58;15.00;;;3.95;;
44774;SDS011;31340;51.402;0.016;2023-04-25T06:34:25;19.40;;;4.28;;
44774;SDS011;31340;51.402;0.016;2023-04-25T06:36:53;14.85;;;3.80;;
44774;SDS011;31340;51.402;0.016;2023-04-25T06:39:22;21.48;;;3.70;;
44774;SDS011;31340;51.402;0.016;2023-04-25T06:41:52;14.85;;;4.50;;
44774;SDS011;31340;51.402;0.016;2023-04-25T06:44:44;20.75;;;4.47;;
44774;SDS011;31340;51.402;0.016;2023-04-25T06:47:14;16.33;;;5.72;;
44774;SDS011;31340;51.402;0.016;2023-04-25T06:49:42;17.02;;;3.90;;
44774;SDS011;31340;51.402;0.016;2023-04-25T06:52:10;15.85;;;4.32;;
44774;SDS011;31340;51.402;0.016;2023-04-25T06:54:38;17.15;;;4.30;;
44774;SDS011;31340;51.402;0.016;2023-04-25T06:57:28;17.05;;;3.78;;
44774;SDS011;31340;51.402;0.016;2023-04-25T07:00:07;18.02;;;3.55;;
44774;SDS011;31340;51.402;0.016;2023-04-25T07:02:37;16.77;;;4.57;;
44774;SDS011;31340;51.402;0.016;2023-04-25T07:05:07;16.55;;;4.40;;
44774;SDS011;31340;51.402;0.016;2023-04-25T07:07:34;18.25;;;4.15;;
44774;SDS011;31340;51.402;0.016;2023-04-25T07:10:02;20.17;;;3.83;;
44774;SDS011;31340;51.402;0.016;2023-04-25T07:12:31;12.35;;;3.97;;
44774;SDS011;31340;51.402;0.016;2023-04-25T07:14:58;17.38;;;4.13;;
44774;SDS011;31340;51.402;0.016;2023-04-25T07:17:26;18.13;;;5.35;;
44774;SDS011;31340;51.402;0.016;2023-04-25T07:19:54;17.65;;;3.45;;
44774;SDS011;31340;51.402;0.016;2023-04-25T07:22:22;18.02;;;3.50;;
44774;SDS011;31340;51.402;0.016;2023-04-25T07:24:50;20.35;;;4.38;;
44774;SDS011;31340;51.402;0.016;2023-04-25T07:27:22;15.63;;;3.20;;
44774;SDS011;31340;51.402;0.016;2023-04-25T07:29:56;15.75;;;4.28;;
44774;SDS011;31340;51.402;0.016;2023-04-25T07:32:25;28.92;;;5.00;;
44774;SDS011;31340;51.402;0.016;2023-04-25T07:34:53;18.05;;;4.60;;
44774;SDS011;31340;51.402;0.016;2023-04-25T07:37:21;14.70;;;3.33;;
44774;SDS011;31340;51.402;0.016;2023-04-25T07:40:02;16.60;;;3.80;;
44774;SDS011;31340;51.402;0.016;2023-04-25T07:42:31;21.30;;;4.10;;
44774;SDS011;31340;51.402;0.016;2023-04-25T07:45:00;16.60;;;4.82;;
44774;SDS011;31340;51.402;0.016;2023-04-25T07:47:29;10.82;;;3.97;;
44774;SDS011;31340;51.402;0.016;2023-04-25T07:49:57;13.05;;;3.97;;
44774;SDS011;31340;51.402;0.016;2023-04-25T07:52:25;13.43;;;3.78;;
44774;SDS011;31340;51.402;0.016;2023-04-25T07:55:00;17.75;;;3.88;;
44774;SDS011;31340;51.402;0.016;2023-04-25T07:57:40;15.18;;;3.88;;
44774;SDS011;31340;51.402;0.016;2023-04-25T08:00:08;14.45;;;3.22;;
44774;SDS011;31340;51.402;0.016;2023-04-25T08:02:39;11.38;;;3.15;;
44774;SDS011;31340;51.402;0.016;2023-04-25T08:05:12;20.70;;;4.10;;
44774;SDS011;31340;51.402;0.016;2023-04-25T08:07:46;14.38;;;3.88;;
44774;SDS011;31340;51.402;0.016;2023-04-25T08:10:14;11.45;;;3.70;;
44774;SDS011;31340;51.402;0.016;2023-04-25T08:12:42;19.13;;;3.40;;
44774;SDS011;31340;51.402;0.016;2023-04-25T08:15:10;17.38;;;3.85;;
44774;SDS011;31340;51.402;0.016;2023-04-25T08:17:39;19.00;;;4.38;;
44774;SDS011;31340;51.402;0.016;2023-04-25T08:20:07;15.02;;;3.47;;
44774;SDS011;31340;51.402;0.016;2023-04-25T08:22:35;14.43;;;3.25;;
44774;SDS011;31340;51.402;0.016;2023-04-25T08:25:28;12.45;;;2.80;;
44774;SDS011;31340;51.402;0.016;2023-04-25T08:27:55;7.60;;;2.97;;
44774;SDS011;31340;51.402;0.016;2023-04-25T08:30:25;17.75;;;3.83;;
44774;SDS011;31340;51.402;0.016;2023-04-25T08:32:54;12.25;;;2.85;;
44774;SDS011;31340;51.402;0.016;2023-04-25T08:35:44;12.48;;;3.40;;
44774;SDS011;31340;51.402;0.016;2023-04-25T08:38:13;15.23;;;3.25;;
44774;SDS011;31340;51.402;0.016;2023-04-25T08:40:41;17.60;;;3.20;;
44774;SDS011;31340;51.402;0.016;2023-04-25T08:43:15;13.10;;;3.75;;
44774;SDS011;31340;51.402;0.016;2023-04-25T08:45:46;17.60;;;3.70;;
44774;SDS011;31340;51.402;0.016;2023-04-25T08:48:24;13.32;;;2.75;;
44774;SDS011;31340;51.402;0.016;2023-04-25T08:50:54;11.13;;;2.70;;
44774;SDS011;31340;51.402;0.016;2023-04-25T08:53:27;8.73;;;2.67;;
44774;SDS011;31340;51.402;0.016;2023-04-25T08:55:59;11.35;;;2.30;;
44774;SDS011;31340;51.402;0.016;2023-04-25T08:58:30;16.25;;;2.90;;
44774;SDS011;31340;51.402;0.016;2023-04-25T09:00:58;13.52;;;2.90;;
44774;SDS011;31340;51.402;0.016;2023-04-25T09:03:31;10.02;;;2.67;;
44774;SDS011;31340;51.402;0.016;2023-04-25T09:05:59;12.30;;;2.47;;
44774;SDS011;31340;51.402;0.016;2023-04-25T09:08:26;9.60;;;3.05;;
44774;SDS011;31340;51.402;0.016;2023-04-25T09:10:54;9.23;;;1.90;;
44774;SDS011;31340;51.402;0.016;2023-04-25T09:13:26;19.30;;;3.45;;
44774;SDS011;31340;51.402;0.016;2023-04-25T09:16:13;16.88;;;2.63;;
44774;SDS011;31340;51.402;0.016;2023-04-25T09:18:57;11.35;;;2.47;;
44774;SDS011;31340;51.402;0.016;2023-04-25T09:21:25;11.77;;;2.65;;
44774;SDS011;31340;51.402;0.016;2023-04-25T09:23:54;9.93;;;2.22;;
44774;SDS011;31340;51.402;0.016;2023-04-25T09:26:22;8.55;;;2.47;;
44774;SDS011;31340;51.402;0.016;2023-04-25T09:28:50;15.88;;;2.58;;
44774;SDS011;31340;51.402;0.016;2023-04-25T09:31:38;13.25;;;2.72;;
44774;SDS011;31340;51.402;0.016;2023-04-25T09:34:07;8.50;;;2.63;;
44774;SDS011;31340;51.402;0.016;2023-04-25T09:36:43;8.45;;;2.42;;
44774;SDS011;31340;51.402;0.016;2023-04-25T09:39:23;11.02;;;2.70;;
44774;SDS011;31340;51.402;0.016;2023-04-25T09:42:03;9.80;;;2.60;;
44774;SDS011;31340;51.402;0.016;2023-04-25T09:44:31;11.80;;;2.83;;
44774;SDS011;31340;51.402;0.016;2023-04-25T09:46:59;12.68;;;2.50;;
44774;SDS011;31340;51.402;0.016;2023-04-25T09:49:29;17.13;;;2.80;;
44774;SDS011;31340;51.402;0.016;2023-04-25T09:52:02;8.00;;;2.35;;
44774;SDS011;31340;51.402;0.016;2023-04-25T09:55:07;8.73;;;2.20;;
44774;SDS011;31340;51.402;0.016;2023-04-25T09:57:36;9.95;;;2.95;;
44774;SDS011;31340;51.402;0.016;2023-04-25T10:00:07;10.85;;;2.47;;
44774;SDS011;31340;51.402;0.016;2023-04-25T10:02:44;12.18;;;2.33;;
44774;SDS011;31340;51.402;0.016;2023-04-25T10:05:37;9.38;;;2.20;;
44774;SDS011;31340;51.402;0.016;2023-04-25T10:08:06;9.82;;;2.33;;
44774;SDS011;31340;51.402;0.016;2023-04-25T10:10:34;10.35;;;2.70;;
44774;SDS011;31340;51.402;0.016;2023-04-25T10:13:05;16.30;;;3.58;;
44774;SDS011;31340;51.402;0.016;2023-04-25T10:15:34;10.65;;;3.22;;
44774;SDS011;31340;51.402;0.016;2023-04-25T10:18:06;9.27;;;2.22;;
44774;SDS011;31340;51.402;0.016;2023-04-25T10:20:34;9.38;;;2.80;;
44774;SDS011;31340;51.402;0.016;2023-04-25T10:23:10;10.18;;;2.60;;
44774;SDS011;31340;51.402;0.016;2023-04-25T10:25:43;13.35;;;2.60;;
44774;SDS011;31340;51.402;0.016;2023-04-25T10:28:11;8.45;;;2.22;;
44774;SDS011;31340;51.402;0.016;2023-04-25T10:30:56;9.75;;;1.92;;
44774;SDS011;31340;51.402;0.016;2023-04-25T10:33:35;9.18;;;1.88;;
44774;SDS011;31340;51.402;0.016;2023-04-25T10:36:08;8.52;;;1.92;;
44774;SDS011;31340;51.402;0.016;2023-04-25T10:41:13;6.85;;;1.83;;
44774;SDS011;31340;51.402;0.016;2023-04-25T10:43:42;12.77;;;2.15;;
44774;SDS011;31340;51.402;0.016;2023-04-25T10:48:47;9.02;;;2.10;;
44774;SDS011;31340;51.402;0.016;2023-04-25T10:51:26;9.38;;;2.33;;
44774;SDS011;31340;51.402;0.016;2023-04-25T10:54:02;6.97;;;2.33;;
44774;SDS011;31340;51.402;0.016;2023-04-25T10:56:37;8.70;;;2.03;;
44774;SDS011;31340;51.402;0.016;2023-04-25T10:59:12;5.20;;;1.80;;
44774;SDS011;31340;51.402;0.016;2023-04-25T11:09:23;7.40;;;1.92;;
44774;SDS011;31340;51.402;0.016;2023-04-25T11:11:55;8.73;;;1.83;;
44774;SDS011;31340;51.402;0.016;2023-04-25T11:14:23;7.18;;;1.77;;
44774;SDS011;31340;51.402;0.016;2023-04-25T11:16:56;6.63;;;1.90;;
44774;SDS011;31340;51.402;0.016;2023-04-25T11:19:27;4.32;;;1.48;;
44774;SDS011;31340;51.402;0.016;2023-04-25T11:21:59;4.88;;;1.70;;
44774;SDS011;31340;51.402;0.016;2023-04-25T11:24:31;3.70;;;1.80;;
44774;SDS011;31340;51.402;0.016;2023-04-25T11:27:04;7.72;;;1.80;;
44774;SDS011;31340;51.402;0.016;2023-04-25T11:29:35;7.80;;;2.05;;
44774;SDS011;31340;51.402;0.016;2023-04-25T11:32:03;12.50;;;1.90;;
44774;SDS011;31340;51.402;0.016;2023-04-25T11:34:32;5.28;;;1.90;;
44774;SDS011;31340;51.402;0.016;2023-04-25T11:37:00;4.65;;;1.98;;
44774;SDS011;31340;51.402;0.016;2023-04-25T11:39:29;6.18;;;2.67;;
44774;SDS011;31340;51.402;0.016;2023-04-25T11:41:57;11.98;;;2.70;;
44774;SDS011;31340;51.402;0.016;2023-04-25T11:44:27;9.32;;;2.78;;
44774;SDS011;31340;51.402;0.016;2023-04-25T11:46:55;7.90;;;2.45;;
44774;SDS011;31340;51.402;0.016;2023-04-25T11:49:22;8.00;;;2.10;;
44774;SDS011;31340;51.402;0.016;2023-04-25T11:51:51;8.20;;;2.35;;
44774;SDS011;31340;51.402;0.016;2023-04-25T11:54:19;9.48;;;2.30;;
44774;SDS011;31340;51.402;0.016;2023-04-25T11:56:46;7.82;;;2.92;;
44774;SDS011;31340;51.402;0.016;2023-04-25T11:59:14;7.85;;;2.50;;
44774;SDS011;31340;51.402;0.016;2023-04-25T12:01:49;4.55;;;2.47;;
44774;SDS011;31340;51.402;0.016;2023-04-25T12:04:21;8.73;;;2.25;;
44774;SDS011;31340;51.402;0.016;2023-04-25T12:06:52;6.40;;;2.15;;
44774;SDS011;31340;51.402;0.016;2023-04-25T12:11:59;6.20;;;2.20;;
44774;SDS011;31340;51.402;0.016;2023-04-25T12:14:31;8.23;;;2.47;;
44774;SDS011;31340;51.402;0.016;2023-04-25T12:17:02;5.32;;;2.50;;
44774;SDS011;31340;51.402;0.016;2023-04-25T12:19:34;7.75;;;2.90;;
44774;SDS011;31340;51.402;0.016;2023-04-25T12:22:03;9.13;;;3.33;;
44774;SDS011;31340;51.402;0.016;2023-04-25T12:24:49;6.97;;;2.53;;
44774;SDS011;31340;51.402;0.016;2023-04-25T12:27:20;6.17;;;2.83;;
44774;SDS011;31340;51.402;0.016;2023-04-25T12:29:51;10.43;;;2.90;;
44774;SDS011;31340;51.402;0.016;2023-04-25T12:32:19;7.38;;;2.70;;
44774;SDS011;31340;51.402;0.016;2023-04-25T12:34:47;6.80;;;2.35;;
44774;SDS011;31340;51.402;0.016;2023-04-25T12:37:15;6.32;;;2.30;;
44774;SDS011;31340;51.402;0.016;2023-04-25T12:39:43;13.15;;;3.20;;
44774;SDS011;31340;51.402;0.016;2023-04-25T12:42:10;6.65;;;2.35;;
44774;SDS011;31340;51.402;0.016;2023-04-25T12:44:40;9.15;;;2.40;;
44774;SDS011;31340;51.402;0.016;2023-04-25T12:47:08;6.22;;;2.10;;
44774;SDS011;31340;51.402;0.016;2023-04-25T12:49:36;7.90;;;3.45;;
44774;SDS011;31340;51.402;0.016;2023-04-25T12:52:04;6.15;;;2.30;;
44774;SDS011;31340;51.402;0.016;2023-04-25T12:54:31;7.30;;;2.17;;
44774;SDS011;31340;51.402;0.016;2023-04-25T12:56:59;5.63;;;2.28;;
44774;SDS011;31340;51.402;0.016;2023-04-25T12:59:28;5.28;;;2.30;;
44774;SDS011;31340;51.402;0.016;2023-04-25T13:01:56;6.68;;;1.92;;
44774;SDS011;31340;51.402;0.016;2023-04-25T13:04:23;6.65;;;2.40;;
44774;SDS011;31340;51.402;0.016;2023-04-25T13:06:51;8.60;;;2.30;;
44774;SDS011;31340;51.402;0.016;2023-04-25T13:09:19;6.65;;;2.20;;
44774;SDS011;31340;51.402;0.016;2023-04-25T13:11:47;11.10;;;2.38;;
44774;SDS011;31340;51.402;0.016;2023-04-25T13:14:15;6.13;;;2.03;;
44774;SDS011;31340;51.402;0.016;2023-04-25T13:16:42;4.78;;;2.00;;
44774;SDS011;31340;51.402;0.016;2023-04-25T13:19:10;7.95;;;2.00;;
44774;SDS011;31340;51.402;0.016;2023-04-25T13:21:38;8.15;;;2.30;;
44774;SDS011;31340;51.402;0.016;2023-04-25T13:24:06;6.88;;;2.50;;
44774;SDS011;31340;51.402;0.016;2023-04-25T13:26:33;5.53;;;2.08;;
44774;SDS011;31340;51.402;0.016;2023-04-25T13:29:01;7.57;;;2.50;;
44774;SDS011;31340;51.402;0.016;2023-04-25T13:31:30;10.90;;;3.28;;
44774;SDS011;31340;51.402;0.016;2023-04-25T13:33:58;7.88;;;2.15;;
44774;SDS011;31340;51.402;0.016;2023-04-25T13:36:26;7.88;;;2.38;;
44774;SDS011;31340;51.402;0.016;2023-04-25T13:38:54;7.95;;;2.55;;
44774;SDS011;31340;51.402;0.016;2023-04-25T13:41:22;7.40;;;2.30;;
44774;SDS011;31340;51.402;0.016;2023-04-25T13:43:49;6.10;;;2.28;;
44774;SDS011;31340;51.402;0.016;2023-04-25T13:46:17;7.55;;;2.00;;
44774;SDS011;31340;51.402;0.016;2023-04-25T13:48:48;5.20;;;1.85;;
44774;SDS011;31340;51.402;0.016;2023-04-25T13:51:19;7.75;;;2.20;;
44774;SDS011;31340;51.402;0.016;2023-04-25T13:53:47;6.47;;;2.60;;
44774;SDS011;31340;51.402;0.016;2023-04-25T13:58:46;3.72;;;2.00;;
44774;SDS011;31340;51.402;0.016;2023-04-25T14:01:14;9.15;;;2.03;;
44774;SDS011;31340;51.402;0.016;2023-04-25T14:03:42;5.97;;;2.30;;
44774;SDS011;31340;51.402;0.016;2023-04-25T14:06:09;7.18;;;2.45;;
44774;SDS011;31340;51.402;0.016;2023-04-25T14:08:39;5.63;;;2.08;;
44774;SDS011;31340;51.402;0.016;2023-04-25T14:11:07;6.53;;;2.17;;
44774;SDS011;31340;51.402;0.016;2023-04-25T14:13:34;4.95;;;2.00;;
44774;SDS011;31340;51.402;0.016;2023-04-25T14:16:02;7.70;;;2.03;;
44774;SDS011;31340;51.402;0.016;2023-04-25T14:18:30;6.00;;;2.67;;
44774;SDS011;31340;51.402;0.016;2023-04-25T14:20:57;10.43;;;2.65;;
44774;SDS011;31340;51.402;0.016;2023-04-25T14:23:25;5.65;;;2.42;;
44774;SDS011;31340;51.402;0.016;2023-04-25T14:25:53;6.50;;;2.70;;
44774;SDS011;31340;51.402;0.016;2023-04-25T14:28:20;5.72;;;2.42;;
44774;SDS011;31340;51.402;0.016;2023-04-25T14:30:48;7.07;;;2.58;;
44774;SDS011;31340;51.402;0.016;2023-04-25T14:33:15;5.72;;;2.30;;
44774;SDS011;31340;51.402;0.016;2023-04-25T14:35:43;6.93;;;2.33;;
44774;SDS011;31340;51.402;0.016;2023-04-25T14:38:10;4.88;;;2.20;;
44774;SDS011;31340;51.402;0.016;2023-04-25T14:40:38;6.30;;;2.28;;
44774;SDS011;31340;51.402;0.016;2023-04-25T14:43:06;5.38;;;2.28;;
44774;SDS011;31340;51.402;0.016;2023-04-25T14:45:33;6.38;;;2.33;;
44774;SDS011;31340;51.402;0.016;2023-04-25T14:48:01;7.85;;;2.30;;
44774;SDS011;31340;51.402;0.016;2023-04-25T14:50:29;6.82;;;2.20;;
44774;SDS011;31340;51.402;0.016;2023-04-25T14:52:57;8.05;;;2.65;;
44774;SDS011;31340;51.402;0.016;2023-04-25T14:55:27;6.82;;;2.65;;
44774;SDS011;31340;51.402;0.016;2023-04-25T14:57:54;9.38;;;2.47;;
44774;SDS011;31340;51.402;0.016;2023-04-25T15:00:24;6.47;;;2.40;;
44774;SDS011;31340;51.402;0.016;2023-04-25T15:02:52;7.90;;;2.17;;
44774;SDS011;31340;51.402;0.016;2023-04-25T15:05:20;6.32;;;2.42;;
44774;SDS011;31340;51.402;0.016;2023-04-25T15:07:48;8.05;;;2.80;;
44774;SDS011;31340;51.402;0.016;2023-04-25T15:10:16;8.88;;;2.50;;
44774;SDS011;31340;51.402;0.016;2023-04-25T15:12:45;12.68;;;2.60;;
44774;SDS011;31340;51.402;0.016;2023-04-25T15:15:13;10.18;;;2.20;;
44774;SDS011;31340;51.402;0.016;2023-04-25T15:17:52;8.10;;;2.88;;
44774;SDS011;31340;51.402;0.016;2023-04-25T15:20:25;9.25;;;3.00;;
44774;SDS011;31340;51.402;0.016;2023-04-25T15:22:54;7.63;;;2.78;;
44774;SDS011;31340;51.402;0.016;2023-04-25T15:25:22;6.85;;;2.85;;
44774;SDS011;31340;51.402;0.016;2023-04-25T15:27:49;12.00;;;2.95;;